sensor_id;sensor_type;location;lat;lon;timestamp;pressure;altitude;pressure_sealevel;temperature;humidity
20037;BME280;10179;42.640;23.312;2022-09-21T00:02:01;93807.97;;;14.52;45.42
20037;BME280;10179;42.640;23.312;2022-09-21T00:04:26;93827.16;;;14.65;45.35
20037;BME280;10179;42.640;23.312;2022-09-21T00:06:52;93774.78;;;14.23;45.33
20037;BME280;10179;42.640;23.312;2022-09-21T00:09:17;93717.66;;;13.78;45.40
20037;BME280;10179;42.640;23.312;2022-09-21T00:11:43;93835.84;;;14.43;45.60
20037;BME280;10179;42.640;23.312;2022-09-21T00:14:11;93834.16;;;14.37;45.85
20037;BME280;10179;42.640;23.312;2022-09-21T00:16:39;93816.97;;;14.18;46.15
20037;BME280;10179;42.640;23.312;2022-09-21T00:19:04;93834.28;;;14.25;46.22
20037;BME280;10179;42.640;23.312;2022-09-21T00:21:31;93814.75;;;14.09;46.36
20037;BME280;10179;42.640;23.312;2022-09-21T00:23:58;93832.34;;;14.21;46.50
20037;BME280;10179;42.640;23.312;2022-09-21T00:26:25;93826.59;;;14.07;46.47
20037;BME280;10179;42.640;23.312;2022-09-21T00:28:56;93832.81;;;14.18;46.67
20037;BME280;10179;42.640;23.312;2022-09-21T00:31:22;93834.94;;;14.16;46.75
20037;BME280;10179;42.640;23.312;2022-09-21T00:33:47;93827.00;;;14.16;46.75
20037;BME280;10179;42.640;23.312;2022-09-21T00:36:16;93832.03;;;14.17;46.78
20037;BME280;10179;42.640;23.312;2022-09-21T00:38:43;93827.00;;;14.16;46.63
20037;BME280;10179;42.640;23.312;2022-09-21T00:41:10;93819.06;;;14.16;46.82
20037;BME280;10179;42.640;23.312;2022-09-21T00:43:40;93806.19;;;14.02;46.88
20037;BME280;10179;42.640;23.312;2022-09-21T00:46:28;93765.81;;;13.85;46.64
20037;BME280;10179;42.640;23.312;2022-09-21T00:48:56;93823.72;;;14.08;46.91
20037;BME280;10179;42.640;23.312;2022-09-21T00:51:22;93817.56;;;14.03;46.93
20037;BME280;10179;42.640;23.312;2022-09-21T00:53:54;93822.28;;;14.01;47.21
20037;BME280;10179;42.640;23.312;2022-09-21T00:56:23;93667.84;;;12.97;47.17
20037;BME280;10179;42.640;23.312;2022-09-21T00:58:50;93798.75;;;13.82;47.20
20037;BME280;10179;42.640;23.312;2022-09-21T01:01:17;93817.03;;;13.84;47.49
20037;BME280;10179;42.640;23.312;2022-09-21T01:03:45;93799.59;;;13.66;47.64
20037;BME280;10179;42.640;23.312;2022-09-21T01:06:12;93777.56;;;13.44;47.58
20037;BME280;10179;42.640;23.312;2022-09-21T01:08:38;93820.53;;;13.56;47.84
20037;BME280;10179;42.640;23.312;2022-09-21T01:16:18;93538.97;;;11.59;48.18
20037;BME280;10179;42.640;23.312;2022-09-21T01:19:03;93814.94;;;13.52;47.78
20037;BME280;10179;42.640;23.312;2022-09-21T01:21:38;93806.09;;;13.30;48.37
20037;BME280;10179;42.640;23.312;2022-09-21T01:24:21;93811.34;;;13.30;48.65
20037;BME280;10179;42.640;23.312;2022-09-21T01:32:33;93804.97;;;13.26;49.11
20037;BME280;10179;42.640;23.312;2022-09-21T01:37:47;93794.53;;;13.19;49.24
20037;BME280;10179;42.640;23.312;2022-09-21T01:40:20;93647.03;;;12.22;49.28
20037;BME280;10179;42.640;23.312;2022-09-21T01:42:48;93798.94;;;13.13;49.56
20037;BME280;10179;42.640;23.312;2022-09-21T01:45:18;93792.59;;;13.14;49.58
20037;BME280;10179;42.640;23.312;2022-09-21T01:47:47;93673.53;;;12.32;49.62
20037;BME280;10179;42.640;23.312;2022-09-21T01:50:15;93794.31;;;12.92;49.54
20037;BME280;10179;42.640;23.312;2022-09-21T01:52:49;93796.75;;;13.10;49.78
20037;BME280;10179;42.640;23.312;2022-09-21T01:55:23;93774.03;;;12.93;49.82
20037;BME280;10179;42.640;23.312;2022-09-21T01:58:15;93779.16;;;12.99;49.83
20037;BME280;10179;42.640;23.312;2022-09-21T02:00:46;93791.28;;;13.00;50.09
20037;BME280;10179;42.640;23.312;2022-09-21T02:03:20;93797.38;;;13.01;50.09
20037;BME280;10179;42.640;23.312;2022-09-21T02:05:49;93777.84;;;12.85;49.97
20037;BME280;10179;42.640;23.312;2022-09-21T02:08:14;93792.22;;;12.94;50.21
20037;BME280;10179;42.640;23.312;2022-09-21T02:10:50;93788.09;;;12.98;50.33
20037;BME280;10179;42.640;23.312;2022-09-21T02:13:18;93791.22;;;12.95;50.15
20037;BME280;10179;42.640;23.312;2022-09-21T02:24:36;93803.22;;;12.62;50.69
20037;BME280;10179;42.640;23.312;2022-09-21T02:30:14;93808.41;;;12.57;50.78
20037;BME280;10179;42.640;23.312;2022-09-21T02:33:01;93778.78;;;12.27;51.06
20037;BME280;10179;42.640;23.312;2022-09-21T02:35:53;93817.22;;;12.51;51.11
20037;BME280;10179;42.640;23.312;2022-09-21T02:38:46;93815.50;;;12.45;51.27
20037;BME280;10179;42.640;23.312;2022-09-21T02:41:30;93790.00;;;12.34;51.36
20037;BME280;10179;42.640;23.312;2022-09-21T02:46:41;93721.59;;;11.75;51.61
20037;BME280;10179;42.640;23.312;2022-09-21T02:49:26;93798.03;;;12.39;51.46
20037;BME280;10179;42.640;23.312;2022-09-21T02:51:57;93710.97;;;11.70;51.44
20037;BME280;10179;42.640;23.312;2022-09-21T02:54:27;93811.41;;;12.37;51.31
20037;BME280;10179;42.640;23.312;2022-09-21T02:56:54;93814.50;;;12.34;51.27
20037;BME280;10179;42.640;23.312;2022-09-21T02:59:21;93800.56;;;12.22;51.13
20037;BME280;10179;42.640;23.312;2022-09-21T03:01:50;93677.66;;;11.40;51.12
20037;BME280;10179;42.640;23.312;2022-09-21T03:04:16;93815.06;;;12.25;51.11
20037;BME280;10179;42.640;23.312;2022-09-21T03:06:42;93748.22;;;11.79;51.02
20037;BME280;10179;42.640;23.312;2022-09-21T03:09:07;93809.94;;;12.18;50.97
20037;BME280;10179;42.640;23.312;2022-09-21T03:11:33;93815.88;;;12.13;51.08
20037;BME280;10179;42.640;23.312;2022-09-21T03:14:01;93813.72;;;12.10;51.21
20037;BME280;10179;42.640;23.312;2022-09-21T03:16:29;93652.06;;;11.01;51.22
20037;BME280;10179;42.640;23.312;2022-09-21T03:18:55;93810.97;;;12.05;51.22
20037;BME280;10179;42.640;23.312;2022-09-21T03:21:20;93814.31;;;12.01;51.26
20037;BME280;10179;42.640;23.312;2022-09-21T03:23:46;93810.75;;;11.95;51.33
20037;BME280;10179;42.640;23.312;2022-09-21T03:26:11;93822.53;;;11.92;51.70
20037;BME280;10179;42.640;23.312;2022-09-21T03:28:37;93818.88;;;11.93;51.69
20037;BME280;10179;42.640;23.312;2022-09-21T03:31:02;93795.16;;;11.82;51.77
20037;BME280;10179;42.640;23.312;2022-09-21T03:33:27;93813.97;;;11.97;51.78
20037;BME280;10179;42.640;23.312;2022-09-21T03:35:53;93825.63;;;12.01;51.78
20037;BME280;10179;42.640;23.312;2022-09-21T03:38:19;93695.59;;;11.08;51.66
20037;BME280;10179;42.640;23.312;2022-09-21T03:40:49;93820.59;;;12.11;51.55
20037;BME280;10179;42.640;23.312;2022-09-21T03:43:15;93825.88;;;12.11;51.62
20037;BME280;10179;42.640;23.312;2022-09-21T03:45:42;93828.72;;;12.10;51.78
20037;BME280;10179;42.640;23.312;2022-09-21T03:48:09;93797.59;;;11.95;51.75
20037;BME280;10179;42.640;23.312;2022-09-21T03:50:36;93829.16;;;12.07;51.61
20037;BME280;10179;42.640;23.312;2022-09-21T03:53:02;93672.53;;;11.10;51.74
20037;BME280;10179;42.640;23.312;2022-09-21T03:55:29;93657.66;;;11.04;51.58
20037;BME280;10179;42.640;23.312;2022-09-21T03:57:55;93677.78;;;11.10;51.64
20037;BME280;10179;42.640;23.312;2022-09-21T04:00:21;93830.31;;;11.99;51.86
20037;BME280;10179;42.640;23.312;2022-09-21T04:02:46;93818.66;;;11.95;51.88
20037;BME280;10179;42.640;23.312;2022-09-21T04:05:13;93831.81;;;11.95;52.02
20037;BME280;10179;42.640;23.312;2022-09-21T04:07:40;93690.69;;;11.00;51.90
20037;BME280;10179;42.640;23.312;2022-09-21T04:10:09;93829.16;;;11.95;51.87
20037;BME280;10179;42.640;23.312;2022-09-21T04:12:37;93833.84;;;11.93;52.02
20037;BME280;10179;42.640;23.312;2022-09-21T04:15:04;93827.44;;;11.89;52.20
20037;BME280;10179;42.640;23.312;2022-09-21T04:17:32;93795.72;;;11.72;52.22
20037;BME280;10179;42.640;23.312;2022-09-21T04:19:59;93840.75;;;11.94;52.26
20037;BME280;10179;42.640;23.312;2022-09-21T04:22:25;93732.00;;;11.35;52.41
20037;BME280;10179;42.640;23.312;2022-09-21T04:24:50;93678.13;;;11.02;52.42
20037;BME280;10179;42.640;23.312;2022-09-21T04:27:16;93756.69;;;11.57;52.59
20037;BME280;10179;42.640;23.312;2022-09-21T04:29:42;93805.03;;;11.98;52.81
20037;BME280;10179;42.640;23.312;2022-09-21T04:32:09;93828.13;;;12.20;52.94
20037;BME280;10179;42.640;23.312;2022-09-21T04:34:35;93813.59;;;12.17;52.80
20037;BME280;10179;42.640;23.312;2022-09-21T04:37:01;93622.94;;;11.02;52.65
20037;BME280;10179;42.640;23.312;2022-09-21T04:39:27;93849.09;;;12.50;52.58
20037;BME280;10179;42.640;23.312;2022-09-21T04:41:52;93832.19;;;12.62;52.58
20037;BME280;10179;42.640;23.312;2022-09-21T04:44:18;93829.78;;;12.73;52.49
20037;BME280;10179;42.640;23.312;2022-09-21T04:46:44;93841.09;;;12.85;52.05
20037;BME280;10179;42.640;23.312;2022-09-21T04:49:09;93683.03;;;12.04;51.82
20037;BME280;10179;42.640;23.312;2022-09-21T04:51:35;93794.22;;;12.87;51.68
20037;BME280;10179;42.640;23.312;2022-09-21T04:54:01;93807.78;;;13.07;51.32
20037;BME280;10179;42.640;23.312;2022-09-21T04:56:27;93702.34;;;12.50;50.87
20037;BME280;10179;42.640;23.312;2022-09-21T04:58:52;93757.03;;;13.00;50.92
20037;BME280;10179;42.640;23.312;2022-09-21T05:01:18;93808.38;;;13.55;50.22
20037;BME280;10179;42.640;23.312;2022-09-21T05:03:43;93850.75;;;13.82;49.72
20037;BME280;10179;42.640;23.312;2022-09-21T05:06:08;93826.75;;;14.00;49.39
20037;BME280;10179;42.640;23.312;2022-09-21T05:08:38;93810.53;;;14.08;48.63
20037;BME280;10179;42.640;23.312;2022-09-21T05:11:22;93828.16;;;14.42;47.99
20037;BME280;10179;42.640;23.312;2022-09-21T05:13:48;93871.53;;;14.63;47.07
20037;BME280;10179;42.640;23.312;2022-09-21T05:16:15;93735.66;;;14.20;46.73
20037;BME280;10179;42.640;23.312;2022-09-21T05:18:41;93837.56;;;14.93;46.45
20037;BME280;10179;42.640;23.312;2022-09-21T05:21:08;93733.75;;;14.37;46.17
20037;BME280;10179;42.640;23.312;2022-09-21T05:23:35;93842.53;;;15.12;46.10
20037;BME280;10179;42.640;23.312;2022-09-21T05:26:01;93834.16;;;15.20;45.99
20037;BME280;10179;42.640;23.312;2022-09-21T05:28:27;93716.97;;;14.48;45.81
20037;BME280;10179;42.640;23.312;2022-09-21T05:33:25;93820.38;;;15.45;45.29
20037;BME280;10179;42.640;23.312;2022-09-21T05:36:19;93830.97;;;15.72;45.17
20037;BME280;10179;42.640;23.312;2022-09-21T05:38:49;93798.56;;;15.65;44.42
20037;BME280;10179;42.640;23.312;2022-09-21T05:41:15;93805.91;;;15.80;44.34
20037;BME280;10179;42.640;23.312;2022-09-21T05:43:41;93827.53;;;16.04;43.97
20037;BME280;10179;42.640;23.312;2022-09-21T05:54:21;93817.72;;;16.41;42.60
20037;BME280;10179;42.640;23.312;2022-09-21T05:57:14;93834.47;;;16.52;42.70
20037;BME280;10179;42.640;23.312;2022-09-21T05:59:57;93845.28;;;16.45;42.55
20037;BME280;10179;42.640;23.312;2022-09-21T06:02:34;93834.13;;;16.38;42.50
20037;BME280;10179;42.640;23.312;2022-09-21T06:05:13;93802.19;;;16.18;42.40
20037;BME280;10179;42.640;23.312;2022-09-21T06:07:39;93836.47;;;16.30;42.13
20037;BME280;10179;42.640;23.312;2022-09-21T06:10:06;93706.81;;;15.43;41.61
20037;BME280;10179;42.640;23.312;2022-09-21T06:12:32;93841.47;;;16.26;41.14
20037;BME280;10179;42.640;23.312;2022-09-21T06:14:57;93838.19;;;16.14;41.37
20037;BME280;10179;42.640;23.312;2022-09-21T06:17:23;93840.19;;;16.29;41.13
20037;BME280;10179;42.640;23.312;2022-09-21T06:19:51;93850.78;;;16.34;40.96
20037;BME280;10179;42.640;23.312;2022-09-21T06:22:17;93839.41;;;16.38;41.00
20037;BME280;10179;42.640;23.312;2022-09-21T06:24:42;93847.41;;;16.43;40.79
20037;BME280;10179;42.640;23.312;2022-09-21T06:27:07;93848.00;;;16.51;40.83
20037;BME280;10179;42.640;23.312;2022-09-21T06:29:33;93840.84;;;16.56;40.64
20037;BME280;10179;42.640;23.312;2022-09-21T06:31:58;93854.00;;;16.78;40.56
20037;BME280;10179;42.640;23.312;2022-09-21T06:34:25;93852.16;;;16.84;39.91
20037;BME280;10179;42.640;23.312;2022-09-21T06:36:51;93847.19;;;16.92;39.70
20037;BME280;10179;42.640;23.312;2022-09-21T06:39:16;93739.75;;;16.32;39.23
20037;BME280;10179;42.640;23.312;2022-09-21T06:41:41;93865.03;;;17.12;39.25
20037;BME280;10179;42.640;23.312;2022-09-21T06:44:07;93835.78;;;17.02;39.03
20037;BME280;10179;42.640;23.312;2022-09-21T06:46:32;93863.22;;;17.28;38.99
20037;BME280;10179;42.640;23.312;2022-09-21T06:48:58;93861.13;;;17.40;39.18
20037;BME280;10179;42.640;23.312;2022-09-21T06:51:23;93863.84;;;17.56;38.97
20037;BME280;10179;42.640;23.312;2022-09-21T06:53:53;93869.22;;;17.76;38.64
20037;BME280;10179;42.640;23.312;2022-09-21T06:56:18;93858.88;;;17.80;38.41
20037;BME280;10179;42.640;23.312;2022-09-21T06:58:44;93871.38;;;18.15;38.01
20037;BME280;10179;42.640;23.312;2022-09-21T07:01:12;93883.59;;;18.42;37.91
20037;BME280;10179;42.640;23.312;2022-09-21T07:03:39;93874.25;;;18.85;37.36
20037;BME280;10179;42.640;23.312;2022-09-21T07:06:06;93874.38;;;19.19;36.65
20037;BME280;10179;42.640;23.312;2022-09-21T07:08:31;93813.13;;;19.24;35.99
20037;BME280;10179;42.640;23.312;2022-09-21T07:10:58;93836.97;;;19.50;35.29
20037;BME280;10179;42.640;23.312;2022-09-21T07:13:27;93587.06;;;17.79;35.50
20037;BME280;10179;42.640;23.312;2022-09-21T07:15:53;93776.31;;;18.77;35.89
20037;BME280;10179;42.640;23.312;2022-09-21T07:18:18;93755.44;;;18.40;36.39
20037;BME280;10179;42.640;23.312;2022-09-21T07:20:45;93812.56;;;18.52;37.08
20037;BME280;10179;42.640;23.312;2022-09-21T07:23:15;93563.25;;;16.72;37.45
20037;BME280;10179;42.640;23.312;2022-09-21T07:25:41;93834.13;;;18.35;37.81
20037;BME280;10179;42.640;23.312;2022-09-21T07:28:08;93871.34;;;18.51;38.20
20037;BME280;10179;42.640;23.312;2022-09-21T07:30:37;93877.75;;;18.50;38.54
20037;BME280;10179;42.640;23.312;2022-09-21T07:33:04;93873.50;;;18.44;38.50
20037;BME280;10179;42.640;23.312;2022-09-21T07:35:30;93887.06;;;18.22;38.72
20037;BME280;10179;42.640;23.312;2022-09-21T07:37:59;93882.00;;;18.05;39.56
20037;BME280;10179;42.640;23.312;2022-09-21T07:40:26;93892.28;;;17.71;40.32
20037;BME280;10179;42.640;23.312;2022-09-21T07:42:51;93866.00;;;17.74;40.19
20037;BME280;10179;42.640;23.312;2022-09-21T07:45:17;93893.13;;;17.81;40.17
20037;BME280;10179;42.640;23.312;2022-09-21T07:47:43;93871.56;;;17.68;40.46
20037;BME280;10179;42.640;23.312;2022-09-21T07:50:09;93782.47;;;17.09;40.31
20037;BME280;10179;42.640;23.312;2022-09-21T07:52:34;93885.91;;;17.72;40.55
20037;BME280;10179;42.640;23.312;2022-09-21T07:54:59;93889.38;;;17.67;40.78
20037;BME280;10179;42.640;23.312;2022-09-21T07:57:26;93877.38;;;17.54;40.55
20037;BME280;10179;42.640;23.312;2022-09-21T08:00:11;93888.28;;;17.58;40.61
20037;BME280;10179;42.640;23.312;2022-09-21T08:02:36;93889.59;;;17.50;40.45
20037;BME280;10179;42.640;23.312;2022-09-21T08:05:02;93905.28;;;17.52;41.03
20037;BME280;10179;42.640;23.312;2022-09-21T08:07:27;93889.38;;;17.62;40.83
20037;BME280;10179;42.640;23.312;2022-09-21T08:09:53;93886.75;;;17.77;40.36
20037;BME280;10179;42.640;23.312;2022-09-21T08:12:19;93891.03;;;17.94;40.31
20037;BME280;10179;42.640;23.312;2022-09-21T08:14:45;93799.56;;;17.49;39.14
20037;BME280;10179;42.640;23.312;2022-09-21T08:17:12;93885.22;;;18.12;38.65
20037;BME280;10179;42.640;23.312;2022-09-21T08:19:38;93861.25;;;18.07;38.40
20037;BME280;10179;42.640;23.312;2022-09-21T08:22:03;93790.28;;;17.56;38.68
20037;BME280;10179;42.640;23.312;2022-09-21T08:24:29;93831.75;;;17.83;38.67
20037;BME280;10179;42.640;23.312;2022-09-21T08:26:55;93778.31;;;17.49;38.31
20037;BME280;10179;42.640;23.312;2022-09-21T08:29:23;93884.41;;;18.17;38.66
20037;BME280;10179;42.640;23.312;2022-09-21T08:31:48;93899.28;;;18.18;38.58
20037;BME280;10179;42.640;23.312;2022-09-21T08:34:14;93826.72;;;17.76;38.57
20037;BME280;10179;42.640;23.312;2022-09-21T08:36:40;93836.03;;;17.99;39.08
20037;BME280;10179;42.640;23.312;2022-09-21T08:39:09;93874.56;;;18.32;38.89
20037;BME280;10179;42.640;23.312;2022-09-21T08:44:49;93859.13;;;18.45;37.84
20037;BME280;10179;42.640;23.312;2022-09-21T08:49:58;93866.03;;;18.35;38.40
20037;BME280;10179;42.640;23.312;2022-09-21T08:52:26;93811.28;;;18.04;38.54
20037;BME280;10179;42.640;23.312;2022-09-21T08:54:57;93859.38;;;18.48;38.50
20037;BME280;10179;42.640;23.312;2022-09-21T08:57:28;93860.19;;;18.74;38.14
20037;BME280;10179;42.640;23.312;2022-09-21T08:59:54;93865.47;;;18.59;38.28
20037;BME280;10179;42.640;23.312;2022-09-21T09:13:02;93851.09;;;18.80;37.67
20037;BME280;10179;42.640;23.312;2022-09-21T09:18:41;93700.72;;;18.03;36.77
20037;BME280;10179;42.640;23.312;2022-09-21T09:21:18;93848.94;;;18.93;37.02
20037;BME280;10179;42.640;23.312;2022-09-21T09:24:29;93842.56;;;18.83;36.93
20037;BME280;10179;42.640;23.312;2022-09-21T09:27:06;93840.97;;;18.67;37.20
20037;BME280;10179;42.640;23.312;2022-09-21T09:32:40;93837.56;;;18.62;37.05
20037;BME280;10179;42.640;23.312;2022-09-21T09:35:25;93824.84;;;18.23;37.85
20037;BME280;10179;42.640;23.312;2022-09-21T09:37:57;93793.50;;;17.99;37.65
20037;BME280;10179;42.640;23.312;2022-09-21T09:51:40;93774.13;;;17.83;36.93
20037;BME280;10179;42.640;23.312;2022-09-21T09:54:12;93829.38;;;18.12;36.80
20037;BME280;10179;42.640;23.312;2022-09-21T09:56:39;93796.69;;;18.01;36.54
20037;BME280;10179;42.640;23.312;2022-09-21T09:59:11;93756.03;;;17.85;36.06
20037;BME280;10179;42.640;23.312;2022-09-21T10:01:45;93792.69;;;18.14;36.09
20037;BME280;10179;42.640;23.312;2022-09-21T10:04:14;93785.75;;;18.28;36.25
20037;BME280;10179;42.640;23.312;2022-09-21T10:06:40;93778.28;;;18.35;36.66
20037;BME280;10179;42.640;23.312;2022-09-21T10:09:33;93796.56;;;18.73;36.35
20037;BME280;10179;42.640;23.312;2022-09-21T10:12:02;93784.56;;;18.70;36.40
20037;BME280;10179;42.640;23.312;2022-09-21T10:14:32;93795.16;;;18.96;35.37
20037;BME280;10179;42.640;23.312;2022-09-21T10:17:04;93791.94;;;19.04;34.13
20037;BME280;10179;42.640;23.312;2022-09-21T10:19:30;93752.13;;;18.78;35.03
20037;BME280;10179;42.640;23.312;2022-09-21T10:21:58;93795.34;;;19.15;35.22
20037;BME280;10179;42.640;23.312;2022-09-21T10:24:30;93793.41;;;19.25;34.77
20037;BME280;10179;42.640;23.312;2022-09-21T10:29:47;93793.75;;;19.08;34.08
20037;BME280;10179;42.640;23.312;2022-09-21T10:34:39;93785.94;;;18.73;35.16
20037;BME280;10179;42.640;23.312;2022-09-21T10:37:29;93785.13;;;18.72;34.88
20037;BME280;10179;42.640;23.312;2022-09-21T10:40:02;93789.66;;;18.62;35.13
20037;BME280;10179;42.640;23.312;2022-09-21T10:42:34;93769.16;;;18.62;35.23
20037;BME280;10179;42.640;23.312;2022-09-21T10:47:38;93771.72;;;18.98;34.20
20037;BME280;10179;42.640;23.312;2022-09-21T10:50:21;93767.13;;;19.08;32.74
20037;BME280;10179;42.640;23.312;2022-09-21T10:52:48;93765.84;;;19.06;33.24
20037;BME280;10179;42.640;23.312;2022-09-21T10:55:16;93762.78;;;19.23;33.56
20037;BME280;10179;42.640;23.312;2022-09-21T10:57:43;93721.06;;;19.13;32.50
20037;BME280;10179;42.640;23.312;2022-09-21T11:02:51;93770.03;;;19.57;32.31
20037;BME280;10179;42.640;23.312;2022-09-21T11:05:35;93760.16;;;19.62;32.64
20037;BME280;10179;42.640;23.312;2022-09-21T11:08:15;93765.00;;;19.55;32.30
20037;BME280;10179;42.640;23.312;2022-09-21T11:14:06;93760.47;;;19.55;32.85
20037;BME280;10179;42.640;23.312;2022-09-21T11:16:46;93744.69;;;19.69;32.65
20037;BME280;10179;42.640;23.312;2022-09-21T11:19:32;93754.41;;;20.13;32.40
20037;BME280;10179;42.640;23.312;2022-09-21T11:22:24;93753.19;;;20.59;31.93
20037;BME280;10179;42.640;23.312;2022-09-21T11:24:58;93750.78;;;20.81;30.25
20037;BME280;10179;42.640;23.312;2022-09-21T11:27:36;93751.63;;;20.77;30.12
20037;BME280;10179;42.640;23.312;2022-09-21T11:30:14;93756.63;;;20.59;30.43
20037;BME280;10179;42.640;23.312;2022-09-21T11:38:19;93748.41;;;19.68;30.34
20037;BME280;10179;42.640;23.312;2022-09-21T11:41:48;93752.75;;;19.54;31.10
20037;BME280;10179;42.640;23.312;2022-09-21T11:44:04;93758.13;;;19.44;30.86
20037;BME280;10179;42.640;23.312;2022-09-21T11:52:11;93756.47;;;19.08;31.83
20037;BME280;10179;42.640;23.312;2022-09-21T12:06:42;93769.00;;;18.18;36.10
20037;BME280;10179;42.640;23.312;2022-09-21T12:11:57;93782.88;;;17.79;37.59
20037;BME280;10179;42.640;23.312;2022-09-21T12:14:39;93779.09;;;17.54;37.68
20037;BME280;10179;42.640;23.312;2022-09-21T12:20:06;93779.88;;;17.24;38.94
20037;BME280;10179;42.640;23.312;2022-09-21T12:22:39;93783.84;;;17.16;39.33
20037;BME280;10179;42.640;23.312;2022-09-21T12:25:37;93775.34;;;17.25;39.36
20037;BME280;10179;42.640;23.312;2022-09-21T12:28:22;93780.09;;;17.12;38.90
20037;BME280;10179;42.640;23.312;2022-09-21T12:30:52;93780.59;;;16.99;39.04
20037;BME280;10179;42.640;23.312;2022-09-21T12:33:26;93779.78;;;16.99;39.80
20037;BME280;10179;42.640;23.312;2022-09-21T12:36:06;93780.84;;;16.98;40.35
20037;BME280;10179;42.640;23.312;2022-09-21T12:38:39;93781.91;;;16.97;41.05
20037;BME280;10179;42.640;23.312;2022-09-21T12:44:39;93702.09;;;16.35;41.61
20037;BME280;10179;42.640;23.312;2022-09-21T12:49:47;93779.91;;;16.61;41.81
20037;BME280;10179;42.640;23.312;2022-09-21T12:52:18;93745.59;;;16.39;41.80
20037;BME280;10179;42.640;23.312;2022-09-21T12:57:31;93771.22;;;16.76;41.84
20037;BME280;10179;42.640;23.312;2022-09-21T13:00:15;93776.59;;;16.91;41.64
20037;BME280;10179;42.640;23.312;2022-09-21T13:03:00;93771.81;;;16.99;41.88
20037;BME280;10179;42.640;23.312;2022-09-21T13:08:14;93764.97;;;17.03;41.03
20037;BME280;10179;42.640;23.312;2022-09-21T13:13:16;93758.56;;;16.88;38.33
20037;BME280;10179;42.640;23.312;2022-09-21T13:15:45;93797.88;;;17.12;38.28
20037;BME280;10179;42.640;23.312;2022-09-21T13:18:21;93763.41;;;17.22;38.22
20037;BME280;10179;42.640;23.312;2022-09-21T13:20:48;93745.63;;;17.17;38.20
20037;BME280;10179;42.640;23.312;2022-09-21T13:23:40;93754.41;;;17.38;37.98
20037;BME280;10179;42.640;23.312;2022-09-21T13:26:08;93751.75;;;17.49;37.30
20037;BME280;10179;42.640;23.312;2022-09-21T13:28:41;93744.31;;;17.61;36.85
20037;BME280;10179;42.640;23.312;2022-09-21T13:36:31;93756.03;;;17.85;35.27
20037;BME280;10179;42.640;23.312;2022-09-21T13:39:17;93732.94;;;17.81;34.93
20037;BME280;10179;42.640;23.312;2022-09-21T13:41:44;93668.63;;;17.23;35.30
20037;BME280;10179;42.640;23.312;2022-09-21T13:47:01;93745.13;;;17.92;34.83
20037;BME280;10179;42.640;23.312;2022-09-21T13:49:30;93749.66;;;17.86;35.01
20037;BME280;10179;42.640;23.312;2022-09-21T13:52:06;93741.97;;;17.80;35.66
20037;BME280;10179;42.640;23.312;2022-09-21T13:54:35;93752.34;;;17.76;36.29
20037;BME280;10179;42.640;23.312;2022-09-21T13:59:41;93751.25;;;17.82;36.62
20037;BME280;10179;42.640;23.312;2022-09-21T14:04:50;93736.34;;;17.97;36.86
20037;BME280;10179;42.640;23.312;2022-09-21T14:07:17;93675.78;;;17.68;36.91
20037;BME280;10179;42.640;23.312;2022-09-21T14:09:54;93734.19;;;18.19;36.80
20037;BME280;10179;42.640;23.312;2022-09-21T14:12:22;93695.41;;;18.08;36.83
20037;BME280;10179;42.640;23.312;2022-09-21T14:17:41;93701.97;;;18.31;36.28
20037;BME280;10179;42.640;23.312;2022-09-21T14:20:26;93720.25;;;18.58;35.88
20037;BME280;10179;42.640;23.312;2022-09-21T14:25:54;93717.28;;;18.59;35.51
20037;BME280;10179;42.640;23.312;2022-09-21T14:28:42;93727.09;;;18.69;35.83
20037;BME280;10179;42.640;23.312;2022-09-21T14:31:35;93726.56;;;18.67;36.44
20037;BME280;10179;42.640;23.312;2022-09-21T14:34:03;93720.81;;;18.45;36.84
20037;BME280;10179;42.640;23.312;2022-09-21T14:36:41;93700.97;;;18.17;37.29
20037;BME280;10179;42.640;23.312;2022-09-21T14:39:23;93724.06;;;18.21;37.30
20037;BME280;10179;42.640;23.312;2022-09-21T14:41:54;93702.88;;;17.96;37.43
20037;BME280;10179;42.640;23.312;2022-09-21T14:44:27;93642.38;;;17.41;36.97
20037;BME280;10179;42.640;23.312;2022-09-21T14:47:04;93726.56;;;17.87;36.60
20037;BME280;10179;42.640;23.312;2022-09-21T14:49:44;93727.59;;;17.86;36.29
20037;BME280;10179;42.640;23.312;2022-09-21T15:00:22;93742.97;;;17.69;35.99
20037;BME280;10179;42.640;23.312;2022-09-21T15:05:55;93735.84;;;17.59;36.46
20037;BME280;10179;42.640;23.312;2022-09-21T15:08:55;93713.25;;;17.36;36.58
20037;BME280;10179;42.640;23.312;2022-09-21T15:11:47;93739.53;;;17.37;36.88
20037;BME280;10179;42.640;23.312;2022-09-21T15:14:33;93743.78;;;17.44;36.97
20037;BME280;10179;42.640;23.312;2022-09-21T15:17:17;93745.91;;;17.41;36.89
20037;BME280;10179;42.640;23.312;2022-09-21T15:19:47;93745.38;;;17.34;36.51
20037;BME280;10179;42.640;23.312;2022-09-21T15:22:15;93750.16;;;17.32;36.66
20037;BME280;10179;42.640;23.312;2022-09-21T15:24:55;93748.56;;;17.36;36.49
20037;BME280;10179;42.640;23.312;2022-09-21T15:27:23;93718.25;;;17.07;36.40
20037;BME280;10179;42.640;23.312;2022-09-21T15:29:54;93739.00;;;17.20;36.76
20037;BME280;10179;42.640;23.312;2022-09-21T15:32:37;93754.91;;;17.30;36.30
20037;BME280;10179;42.640;23.312;2022-09-21T15:35:14;93764.97;;;17.23;35.61
20037;BME280;10179;42.640;23.312;2022-09-21T15:37:41;93741.59;;;17.05;35.74
20037;BME280;10179;42.640;23.312;2022-09-21T15:48:10;93783.03;;;17.11;36.99
20037;BME280;10179;42.640;23.312;2022-09-21T15:50:37;93705.94;;;16.65;37.29
20037;BME280;10179;42.640;23.312;2022-09-21T15:53:11;93756.44;;;17.01;37.67
20037;BME280;10179;42.640;23.312;2022-09-21T15:55:39;93674.56;;;16.41;37.45
20037;BME280;10179;42.640;23.312;2022-09-21T15:58:28;93779.31;;;17.17;37.55